sensor_id;sensor_type;location;lat;lon;timestamp;pressure;altitude;pressure_sealevel;temperature;humidity
76260;BME280;65076;52.362;6.588;2023-03-01T00:01:48;103220.06;;;1.30;60.29
76260;BME280;65076;52.362;6.588;2023-03-01T00:04:19;103229.34;;;1.44;59.92
76260;BME280;65076;52.362;6.588;2023-03-01T00:06:47;103212.53;;;1.46;60.17
76260;BME280;65076;52.362;6.588;2023-03-01T00:09:18;103215.03;;;1.40;60.15
76260;BME280;65076;52.362;6.588;2023-03-01T00:11:46;103221.41;;;1.47;60.46
76260;BME280;65076;52.362;6.588;2023-03-01T00:14:15;103217.16;;;1.53;60.41
76260;BME280;65076;52.362;6.588;2023-03-01T00:16:44;103212.88;;;1.60;59.40
76260;BME280;65076;52.362;6.588;2023-03-01T00:19:15;103217.81;;;1.45;60.17
76260;BME280;65076;52.362;6.588;2023-03-01T00:21:44;103208.41;;;1.59;59.73
76260;BME280;65076;52.362;6.588;2023-03-01T00:24:12;103209.41;;;1.31;61.07
76260;BME280;65076;52.362;6.588;2023-03-01T00:26:40;103204.97;;;1.30;60.85
76260;BME280;65076;52.362;6.588;2023-03-01T00:29:09;103202.63;;;1.42;60.75
76260;BME280;65076;52.362;6.588;2023-03-01T00:31:40;103205.56;;;1.51;60.43
76260;BME280;65076;52.362;6.588;2023-03-01T00:34:14;103204.97;;;1.32;61.12
76260;BME280;65076;52.362;6.588;2023-03-01T00:36:42;103204.47;;;1.45;60.59
76260;BME280;65076;52.362;6.588;2023-03-01T00:39:11;103199.03;;;1.42;59.93
76260;BME280;65076;52.362;6.588;2023-03-01T00:41:42;103207.69;;;1.33;60.31
76260;BME280;65076;52.362;6.588;2023-03-01T00:44:11;103207.34;;;1.21;61.03
76260;BME280;65076;52.362;6.588;2023-03-01T00:46:40;103201.66;;;1.07;61.55
76260;BME280;65076;52.362;6.588;2023-03-01T00:49:08;103203.47;;;1.08;61.74
76260;BME280;65076;52.362;6.588;2023-03-01T00:51:36;103204.75;;;1.22;61.46
76260;BME280;65076;52.362;6.588;2023-03-01T00:54:05;103194.50;;;1.38;61.26
76260;BME280;65076;52.362;6.588;2023-03-01T00:56:33;103196.06;;;1.31;61.70
76260;BME280;65076;52.362;6.588;2023-03-01T00:59:01;103207.34;;;1.21;61.61
76260;BME280;65076;52.362;6.588;2023-03-01T01:01:30;103190.44;;;1.19;61.62
76260;BME280;65076;52.362;6.588;2023-03-01T01:04:02;103201.34;;;1.28;61.09
76260;BME280;65076;52.362;6.588;2023-03-01T01:06:33;103201.56;;;1.04;61.73
76260;BME280;65076;52.362;6.588;2023-03-01T01:09:03;103197.41;;;1.14;60.91
76260;BME280;65076;52.362;6.588;2023-03-01T01:11:33;103197.47;;;1.17;60.93
76260;BME280;65076;52.362;6.588;2023-03-01T01:14:03;103200.75;;;1.07;61.19
76260;BME280;65076;52.362;6.588;2023-03-01T01:16:31;103204.97;;;0.99;61.48
76260;BME280;65076;52.362;6.588;2023-03-01T01:19:01;103198.72;;;0.98;61.25
76260;BME280;65076;52.362;6.588;2023-03-01T01:21:29;103190.81;;;1.01;61.24
76260;BME280;65076;52.362;6.588;2023-03-01T01:23:58;103182.75;;;1.00;61.49
76260;BME280;65076;52.362;6.588;2023-03-01T01:26:28;103186.00;;;0.90;61.27
76260;BME280;65076;52.362;6.588;2023-03-01T01:28:59;103183.31;;;0.58;62.24
76260;BME280;65076;52.362;6.588;2023-03-01T01:31:28;103186.13;;;0.63;62.48
76260;BME280;65076;52.362;6.588;2023-03-01T01:33:58;103178.84;;;0.57;62.87
76260;BME280;65076;52.362;6.588;2023-03-01T01:36:29;103173.00;;;0.40;63.38
76260;BME280;65076;52.362;6.588;2023-03-01T01:38:58;103173.22;;;0.76;63.33
76260;BME280;65076;52.362;6.588;2023-03-01T01:41:27;103174.31;;;0.83;63.01
76260;BME280;65076;52.362;6.588;2023-03-01T01:44:11;103166.69;;;0.97;61.87
76260;BME280;65076;52.362;6.588;2023-03-01T01:46:44;103160.09;;;0.84;62.13
76260;BME280;65076;52.362;6.588;2023-03-01T01:49:23;103165.38;;;0.53;63.06
76260;BME280;65076;52.362;6.588;2023-03-01T01:52:00;103164.91;;;0.66;62.75
76260;BME280;65076;52.362;6.588;2023-03-01T01:54:39;103164.19;;;0.71;62.37
76260;BME280;65076;52.362;6.588;2023-03-01T01:57:15;103159.63;;;0.67;62.65
76260;BME280;65076;52.362;6.588;2023-03-01T01:59:53;103159.94;;;0.78;62.65
76260;BME280;65076;52.362;6.588;2023-03-01T02:02:26;103157.94;;;0.71;62.64
76260;BME280;65076;52.362;6.588;2023-03-01T02:05:02;103156.19;;;0.71;63.17
76260;BME280;65076;52.362;6.588;2023-03-01T02:07:39;103159.66;;;0.69;63.48
76260;BME280;65076;52.362;6.588;2023-03-01T02:10:09;103154.38;;;0.70;63.12
76260;BME280;65076;52.362;6.588;2023-03-01T02:12:39;103153.16;;;0.59;63.42
76260;BME280;65076;52.362;6.588;2023-03-01T02:15:07;103152.97;;;0.53;62.83
76260;BME280;65076;52.362;6.588;2023-03-01T02:17:37;103153.66;;;0.46;62.86
76260;BME280;65076;52.362;6.588;2023-03-01T02:20:16;103152.69;;;0.44;63.02
76260;BME280;65076;52.362;6.588;2023-03-01T02:22:54;103151.13;;;0.51;62.96
76260;BME280;65076;52.362;6.588;2023-03-01T02:25:32;103152.25;;;0.59;63.17
76260;BME280;65076;52.362;6.588;2023-03-01T02:30:49;103141.06;;;0.70;63.05
76260;BME280;65076;52.362;6.588;2023-03-01T02:33:41;103133.91;;;0.69;62.50
76260;BME280;65076;52.362;6.588;2023-03-01T02:36:15;103133.41;;;0.51;62.63
76260;BME280;65076;52.362;6.588;2023-03-01T02:38:47;103128.91;;;0.50;63.28
76260;BME280;65076;52.362;6.588;2023-03-01T02:41:19;103126.63;;;0.62;62.46
76260;BME280;65076;52.362;6.588;2023-03-01T02:43:49;103130.94;;;0.59;62.60
76260;BME280;65076;52.362;6.588;2023-03-01T02:46:22;103122.28;;;0.36;62.43
76260;BME280;65076;52.362;6.588;2023-03-01T02:48:53;103130.16;;;0.31;63.26
76260;BME280;65076;52.362;6.588;2023-03-01T02:51:38;103132.75;;;0.30;63.85
76260;BME280;65076;52.362;6.588;2023-03-01T02:54:22;103125.16;;;0.43;63.54
76260;BME280;65076;52.362;6.588;2023-03-01T02:56:56;103121.06;;;0.25;63.60
76260;BME280;65076;52.362;6.588;2023-03-01T02:59:29;103116.84;;;0.33;63.49
76260;BME280;65076;52.362;6.588;2023-03-01T03:02:01;103118.94;;;0.43;63.17
76260;BME280;65076;52.362;6.588;2023-03-01T03:04:29;103115.28;;;0.39;63.34
76260;BME280;65076;52.362;6.588;2023-03-01T03:06:57;103110.91;;;0.41;63.28
76260;BME280;65076;52.362;6.588;2023-03-01T03:09:25;103116.84;;;0.33;63.21
76260;BME280;65076;52.362;6.588;2023-03-01T03:11:53;103109.81;;;0.35;63.66
76260;BME280;65076;52.362;6.588;2023-03-01T03:14:21;103109.00;;;0.37;63.27
76260;BME280;65076;52.362;6.588;2023-03-01T03:16:51;103105.59;;;0.41;62.78
76260;BME280;65076;52.362;6.588;2023-03-01T03:19:19;103106.25;;;0.34;63.40
76260;BME280;65076;52.362;6.588;2023-03-01T03:21:47;103098.19;;;0.31;62.52
76260;BME280;65076;52.362;6.588;2023-03-01T03:24:16;103087.25;;;0.22;63.21
76260;BME280;65076;52.362;6.588;2023-03-01T03:26:44;103087.22;;;0.21;63.53
76260;BME280;65076;52.362;6.588;2023-03-01T03:29:12;103094.31;;;0.20;64.28
76260;BME280;65076;52.362;6.588;2023-03-01T03:31:41;103102.19;;;0.17;64.04
76260;BME280;65076;52.362;6.588;2023-03-01T03:34:10;103097.16;;;-0.02;64.73
76260;BME280;65076;52.362;6.588;2023-03-01T03:36:44;103106.97;;;0.00;65.11
76260;BME280;65076;52.362;6.588;2023-03-01T03:39:12;103101.47;;;0.23;64.35
76260;BME280;65076;52.362;6.588;2023-03-01T03:41:40;103103.53;;;0.31;63.90
76260;BME280;65076;52.362;6.588;2023-03-01T03:44:08;103102.78;;;0.37;63.57
76260;BME280;65076;52.362;6.588;2023-03-01T03:46:36;103104.38;;;0.30;63.53
76260;BME280;65076;52.362;6.588;2023-03-01T03:49:04;103106.25;;;0.34;63.14
76260;BME280;65076;52.362;6.588;2023-03-01T03:51:33;103101.72;;;0.32;62.74
76260;BME280;65076;52.362;6.588;2023-03-01T03:54:01;103100.63;;;0.24;63.19
76260;BME280;65076;52.362;6.588;2023-03-01T03:56:29;103102.44;;;0.25;63.15
76260;BME280;65076;52.362;6.588;2023-03-01T03:58:58;103104.56;;;0.08;63.61
76260;BME280;65076;52.362;6.588;2023-03-01T04:01:25;103102.88;;;0.10;63.91
76260;BME280;65076;52.362;6.588;2023-03-01T04:03:54;103104.50;;;0.05;63.40
76260;BME280;65076;52.362;6.588;2023-03-01T04:06:22;103104.44;;;0.04;63.28
76260;BME280;65076;52.362;6.588;2023-03-01T04:08:51;103105.53;;;0.10;63.47
76260;BME280;65076;52.362;6.588;2023-03-01T04:11:26;103100.94;;;0.06;63.79
76260;BME280;65076;52.362;6.588;2023-03-01T04:13:56;103107.31;;;0.11;63.54
76260;BME280;65076;52.362;6.588;2023-03-01T04:16:26;103096.66;;;0.11;63.79
76260;BME280;65076;52.362;6.588;2023-03-01T04:18:54;103097.63;;;0.13;63.42
76260;BME280;65076;52.362;6.588;2023-03-01T04:21:23;103081.66;;;0.13;63.21
76260;BME280;65076;52.362;6.588;2023-03-01T04:23:52;103088.59;;;0.08;63.72
76260;BME280;65076;52.362;6.588;2023-03-01T04:26:20;103088.53;;;0.05;63.79
76260;BME280;65076;52.362;6.588;2023-03-01T04:28:48;103086.72;;;0.06;64.35
76260;BME280;65076;52.362;6.588;2023-03-01T04:31:18;103080.19;;;-0.06;63.85
76260;BME280;65076;52.362;6.588;2023-03-01T04:33:48;103077.44;;;-0.09;63.89
76260;BME280;65076;52.362;6.588;2023-03-01T04:36:21;103076.16;;;-0.21;64.30
76260;BME280;65076;52.362;6.588;2023-03-01T04:38:52;103082.00;;;-0.31;64.71
76260;BME280;65076;52.362;6.588;2023-03-01T04:41:22;103071.19;;;-0.37;64.87
76260;BME280;65076;52.362;6.588;2023-03-01T04:43:51;103069.25;;;-0.43;65.36
76260;BME280;65076;52.362;6.588;2023-03-01T04:46:21;103066.06;;;-0.31;64.60
76260;BME280;65076;52.362;6.588;2023-03-01T04:48:49;103060.94;;;-0.25;64.22
76260;BME280;65076;52.362;6.588;2023-03-01T04:51:17;103059.88;;;-0.32;64.47
76260;BME280;65076;52.362;6.588;2023-03-01T04:53:46;103061.03;;;-0.22;64.36
76260;BME280;65076;52.362;6.588;2023-03-01T04:56:16;103056.38;;;-0.29;64.83
76260;BME280;65076;52.362;6.588;2023-03-01T04:58:45;103063.31;;;-0.34;65.06
76260;BME280;65076;52.362;6.588;2023-03-01T05:01:15;103055.28;;;-0.36;65.46
76260;BME280;65076;52.362;6.588;2023-03-01T05:03:47;103053.53;;;-0.35;65.07
76260;BME280;65076;52.362;6.588;2023-03-01T05:06:18;103049.81;;;-0.40;65.05
76260;BME280;65076;52.362;6.588;2023-03-01T05:08:47;103055.53;;;-0.28;64.77
76260;BME280;65076;52.362;6.588;2023-03-01T05:11:17;103047.63;;;-0.25;64.61
76260;BME280;65076;52.362;6.588;2023-03-01T05:13:45;103046.50;;;-0.33;65.04
76260;BME280;65076;52.362;6.588;2023-03-01T05:16:13;103042.13;;;-0.31;64.56
76260;BME280;65076;52.362;6.588;2023-03-01T05:18:40;103040.16;;;-0.65;65.30
76260;BME280;65076;52.362;6.588;2023-03-01T05:21:11;103039.53;;;-0.57;66.05
76260;BME280;65076;52.362;6.588;2023-03-01T05:23:43;103040.72;;;-0.47;65.49
76260;BME280;65076;52.362;6.588;2023-03-01T05:26:13;103043.00;;;-0.32;64.93
76260;BME280;65076;52.362;6.588;2023-03-01T05:29:03;103028.81;;;-0.31;64.53
76260;BME280;65076;52.362;6.588;2023-03-01T05:31:31;103027.97;;;-0.59;64.81
76260;BME280;65076;52.362;6.588;2023-03-01T05:33:58;103031.34;;;-0.63;64.26
76260;BME280;65076;52.362;6.588;2023-03-01T05:36:28;103027.13;;;-0.58;64.60
76260;BME280;65076;52.362;6.588;2023-03-01T05:38:57;103022.59;;;-0.60;64.93
76260;BME280;65076;52.362;6.588;2023-03-01T05:41:26;103021.63;;;-0.62;65.21
76260;BME280;65076;52.362;6.588;2023-03-01T05:43:54;103026.25;;;-0.57;64.81
76260;BME280;65076;52.362;6.588;2023-03-01T05:46:23;103030.81;;;-0.79;65.58
76260;BME280;65076;52.362;6.588;2023-03-01T05:48:51;103031.47;;;-0.60;65.43
76260;BME280;65076;52.362;6.588;2023-03-01T05:51:19;103028.16;;;-0.53;64.52
76260;BME280;65076;52.362;6.588;2023-03-01T05:53:48;103029.78;;;-0.58;64.55
76260;BME280;65076;52.362;6.588;2023-03-01T05:56:16;103019.88;;;-0.62;64.85
76260;BME280;65076;52.362;6.588;2023-03-01T05:58:44;103023.22;;;-0.94;66.63
76260;BME280;65076;52.362;6.588;2023-03-01T06:01:12;103019.59;;;-0.71;66.31
76260;BME280;65076;52.362;6.588;2023-03-01T06:03:42;103017.19;;;-0.63;65.41
76260;BME280;65076;52.362;6.588;2023-03-01T06:06:10;103019.03;;;-0.61;65.27
76260;BME280;65076;52.362;6.588;2023-03-01T06:08:38;103016.31;;;-0.62;65.14
76260;BME280;65076;52.362;6.588;2023-03-01T06:11:06;103018.38;;;-0.54;65.25
76260;BME280;65076;52.362;6.588;2023-03-01T06:13:41;103017.69;;;-0.75;65.47
76260;BME280;65076;52.362;6.588;2023-03-01T06:16:09;103025.38;;;-0.84;66.23
76260;BME280;65076;52.362;6.588;2023-03-01T06:18:38;103021.97;;;-0.78;66.13
76260;BME280;65076;52.362;6.588;2023-03-01T06:21:08;103027.25;;;-0.80;66.08
76260;BME280;65076;52.362;6.588;2023-03-01T06:23:36;103029.16;;;-0.76;65.21
76260;BME280;65076;52.362;6.588;2023-03-01T06:26:08;103028.56;;;-0.67;65.84
76260;BME280;65076;52.362;6.588;2023-03-01T06:28:36;103032.59;;;-0.78;65.73
76260;BME280;65076;52.362;6.588;2023-03-01T06:31:06;103029.81;;;-0.83;66.42
76260;BME280;65076;52.362;6.588;2023-03-01T06:33:35;103034.56;;;-0.73;66.52
76260;BME280;65076;52.362;6.588;2023-03-01T06:36:04;103025.19;;;-0.62;65.92
76260;BME280;65076;52.362;6.588;2023-03-01T06:38:34;103031.69;;;-0.52;65.55
76260;BME280;65076;52.362;6.588;2023-03-01T06:41:02;103034.97;;;-0.61;65.39
76260;BME280;65076;52.362;6.588;2023-03-01T06:43:30;103026.72;;;-0.42;66.07
76260;BME280;65076;52.362;6.588;2023-03-01T06:45:58;103030.78;;;-0.26;65.35
76260;BME280;65076;52.362;6.588;2023-03-01T06:48:27;103037.69;;;-0.31;65.71
76260;BME280;65076;52.362;6.588;2023-03-01T06:50:58;103036.94;;;-0.55;65.72
76260;BME280;65076;52.362;6.588;2023-03-01T06:53:27;103043.50;;;-0.44;65.66
76260;BME280;65076;52.362;6.588;2023-03-01T06:55:57;103039.34;;;-0.08;64.53
76260;BME280;65076;52.362;6.588;2023-03-01T06:58:26;103053.22;;;-0.18;64.99
76260;BME280;65076;52.362;6.588;2023-03-01T07:00:54;103049.91;;;-0.11;65.40
76260;BME280;65076;52.362;6.588;2023-03-01T07:03:23;103055.03;;;-0.15;65.61
76260;BME280;65076;52.362;6.588;2023-03-01T07:05:51;103051.22;;;0.04;65.65
76260;BME280;65076;52.362;6.588;2023-03-01T07:08:19;103055.03;;;0.13;64.99
76260;BME280;65076;52.362;6.588;2023-03-01T07:10:47;103053.09;;;0.37;65.32
76260;BME280;65076;52.362;6.588;2023-03-01T07:13:19;103046.72;;;0.62;64.49
76260;BME280;65076;52.362;6.588;2023-03-01T07:15:47;103041.34;;;0.61;63.83
76260;BME280;65076;52.362;6.588;2023-03-01T07:18:15;103041.16;;;0.55;63.92
76260;BME280;65076;52.362;6.588;2023-03-01T07:20:43;103035.47;;;0.74;64.15
76260;BME280;65076;52.362;6.588;2023-03-01T07:23:11;103041.34;;;0.61;65.57
76260;BME280;65076;52.362;6.588;2023-03-01T07:25:39;103036.66;;;0.83;64.46
76260;BME280;65076;52.362;6.588;2023-03-01T07:28:07;103043.16;;;0.62;65.65
76260;BME280;65076;52.362;6.588;2023-03-01T07:30:36;103044.66;;;0.85;65.76
76260;BME280;65076;52.362;6.588;2023-03-01T07:33:06;103036.09;;;0.97;65.84
76260;BME280;65076;52.362;6.588;2023-03-01T07:35:35;103034.41;;;1.35;64.76
76260;BME280;65076;52.362;6.588;2023-03-01T07:38:03;103033.78;;;2.23;62.59
76260;BME280;65076;52.362;6.588;2023-03-01T07:40:31;103033.78;;;2.66;59.95
76260;BME280;65076;52.362;6.588;2023-03-01T07:42:59;103028.19;;;3.01;59.66
76260;BME280;65076;52.362;6.588;2023-03-01T07:45:28;103019.88;;;3.95;57.37
76260;BME280;65076;52.362;6.588;2023-03-01T07:47:58;103014.13;;;5.16;54.21
76260;BME280;65076;52.362;6.588;2023-03-01T07:50:26;103015.09;;;5.22;52.68
76260;BME280;65076;52.362;6.588;2023-03-01T07:52:54;103009.03;;;4.55;53.94
76260;BME280;65076;52.362;6.588;2023-03-01T07:55:22;103019.00;;;4.65;54.63
76260;BME280;65076;52.362;6.588;2023-03-01T07:57:50;103019.31;;;4.96;53.31
76260;BME280;65076;52.362;6.588;2023-03-01T08:00:18;103002.25;;;4.92;53.86
76260;BME280;65076;52.362;6.588;2023-03-01T08:02:47;103002.94;;;5.73;51.61
76260;BME280;65076;52.362;6.588;2023-03-01T08:05:16;103001.19;;;5.79;51.52
76260;BME280;65076;52.362;6.588;2023-03-01T08:07:44;103003.22;;;6.12;50.60
76260;BME280;65076;52.362;6.588;2023-03-01T08:10:12;103008.53;;;6.06;50.66
76260;BME280;65076;52.362;6.588;2023-03-01T08:12:40;103005.13;;;6.47;50.25
76260;BME280;65076;52.362;6.588;2023-03-01T08:15:09;102996.25;;;7.60;46.55
76260;BME280;65076;52.362;6.588;2023-03-01T08:17:37;103001.66;;;7.60;47.71
76260;BME280;65076;52.362;6.588;2023-03-01T08:20:06;102995.94;;;8.60;44.45
76260;BME280;65076;52.362;6.588;2023-03-01T08:22:40;102992.31;;;9.77;42.14
76260;BME280;65076;52.362;6.588;2023-03-01T08:25:08;103000.75;;;7.38;44.34
76260;BME280;65076;52.362;6.588;2023-03-01T08:27:36;102998.53;;;8.81;42.13
76260;BME280;65076;52.362;6.588;2023-03-01T08:30:06;102988.06;;;9.49;39.76
76260;BME280;65076;52.362;6.588;2023-03-01T08:32:36;102990.63;;;9.64;39.81
76260;BME280;65076;52.362;6.588;2023-03-01T08:35:05;102982.66;;;10.33;39.38
76260;BME280;65076;52.362;6.588;2023-03-01T08:37:33;102987.28;;;9.39;40.45
76260;BME280;65076;52.362;6.588;2023-03-01T08:40:03;102983.72;;;9.34;41.51
76260;BME280;65076;52.362;6.588;2023-03-01T08:42:33;102992.03;;;10.04;40.16
76260;BME280;65076;52.362;6.588;2023-03-01T08:45:01;102989.72;;;9.63;38.91
76260;BME280;65076;52.362;6.588;2023-03-01T08:47:29;102977.94;;;10.48;38.62
76260;BME280;65076;52.362;6.588;2023-03-01T08:49:57;102980.25;;;10.05;38.63
76260;BME280;65076;52.362;6.588;2023-03-01T08:52:25;102974.50;;;10.98;36.27
76260;BME280;65076;52.362;6.588;2023-03-01T08:54:54;102968.22;;;11.48;35.83
76260;BME280;65076;52.362;6.588;2023-03-01T08:57:23;102974.78;;;10.13;37.65
76260;BME280;65076;52.362;6.588;2023-03-01T08:59:51;102978.63;;;9.91;37.55
76260;BME280;65076;52.362;6.588;2023-03-01T09:02:22;102971.69;;;10.45;36.69
76260;BME280;65076;52.362;6.588;2023-03-01T09:04:50;102975.88;;;9.97;36.65
76260;BME280;65076;52.362;6.588;2023-03-01T09:07:18;102974.19;;;9.88;38.31
76260;BME280;65076;52.362;6.588;2023-03-01T09:09:46;102982.34;;;9.82;36.51
76260;BME280;65076;52.362;6.588;2023-03-01T09:12:14;102972.84;;;9.42;39.24
76260;BME280;65076;52.362;6.588;2023-03-01T09:14:44;102970.41;;;11.27;35.51
76260;BME280;65076;52.362;6.588;2023-03-01T09:17:12;102974.47;;;9.59;37.57
76260;BME280;65076;52.362;6.588;2023-03-01T09:19:40;102971.19;;;10.11;37.01
76260;BME280;65076;52.362;6.588;2023-03-01T09:22:08;102963.59;;;9.64;37.69
76260;BME280;65076;52.362;6.588;2023-03-01T09:24:36;102966.84;;;9.96;36.59
76260;BME280;65076;52.362;6.588;2023-03-01T09:27:04;102977.66;;;9.98;36.20
76260;BME280;65076;52.362;6.588;2023-03-01T09:29:36;102973.16;;;9.95;36.17
76260;BME280;65076;52.362;6.588;2023-03-01T09:32:06;102971.97;;;10.22;36.15
76260;BME280;65076;52.362;6.588;2023-03-01T09:34:34;102973.50;;;10.44;35.47
76260;BME280;65076;52.362;6.588;2023-03-01T09:37:23;102966.81;;;10.68;35.61
76260;BME280;65076;52.362;6.588;2023-03-01T09:39:52;102959.25;;;10.91;34.98
76260;BME280;65076;52.362;6.588;2023-03-01T09:42:20;102953.28;;;10.68;34.84
76260;BME280;65076;52.362;6.588;2023-03-01T09:44:51;102958.03;;;11.12;35.18
76260;BME280;65076;52.362;6.588;2023-03-01T09:47:28;102947.75;;;11.81;33.02
76260;BME280;65076;52.362;6.588;2023-03-01T09:50:02;102947.88;;;10.68;34.34
76260;BME280;65076;52.362;6.588;2023-03-01T09:52:38;102947.69;;;10.19;35.33
76260;BME280;65076;52.362;6.588;2023-03-01T09:55:11;102943.59;;;10.53;34.78
76260;BME280;65076;52.362;6.588;2023-03-01T09:57:46;102943.66;;;11.07;33.06
76260;BME280;65076;52.362;6.588;2023-03-01T10:00:24;102943.19;;;11.34;33.18
76260;BME280;65076;52.362;6.588;2023-03-01T10:03:04;102930.41;;;11.41;31.71
76260;BME280;65076;52.362;6.588;2023-03-01T10:05:44;102920.84;;;11.20;33.54
76260;BME280;65076;52.362;6.588;2023-03-01T10:08:34;102920.09;;;12.09;31.64
76260;BME280;65076;52.362;6.588;2023-03-01T10:11:19;102926.63;;;11.51;31.25
76260;BME280;65076;52.362;6.588;2023-03-01T10:13:55;102913.56;;;12.93;30.11
76260;BME280;65076;52.362;6.588;2023-03-01T10:16:40;102913.25;;;11.88;31.60
76260;BME280;65076;52.362;6.588;2023-03-01T10:19:22;102906.41;;;12.13;30.74
76260;BME280;65076;52.362;6.588;2023-03-01T10:21:57;102907.19;;;11.75;31.52
76260;BME280;65076;52.362;6.588;2023-03-01T10:24:34;102908.38;;;9.88;33.75
76260;BME280;65076;52.362;6.588;2023-03-01T10:27:06;102901.75;;;11.28;32.50
76260;BME280;65076;52.362;6.588;2023-03-01T10:29:45;102895.44;;;11.27;30.84
76260;BME280;65076;52.362;6.588;2023-03-01T10:32:22;102895.00;;;10.46;32.97
76260;BME280;65076;52.362;6.588;2023-03-01T10:34:52;102907.28;;;11.20;31.72
76260;BME280;65076;52.362;6.588;2023-03-01T10:37:21;102911.22;;;11.02;32.06
76260;BME280;65076;52.362;6.588;2023-03-01T10:39:56;102888.34;;;12.12;30.75
76260;BME280;65076;52.362;6.588;2023-03-01T10:42:28;102897.44;;;11.65;30.86
76260;BME280;65076;52.362;6.588;2023-03-01T10:44:58;102908.69;;;11.44;31.95
76260;BME280;65076;52.362;6.588;2023-03-01T10:47:43;102899.53;;;10.42;33.54
76260;BME280;65076;52.362;6.588;2023-03-01T10:50:21;102899.63;;;9.66;35.38
76260;BME280;65076;52.362;6.588;2023-03-01T10:52:57;102901.88;;;10.02;34.00
76260;BME280;65076;52.362;6.588;2023-03-01T10:55:31;102905.75;;;10.52;34.41
76260;BME280;65076;52.362;6.588;2023-03-01T10:58:09;102897.44;;;9.95;34.60
76260;BME280;65076;52.362;6.588;2023-03-01T11:00:47;102898.22;;;10.05;34.80
76260;BME280;65076;52.362;6.588;2023-03-01T11:03:19;102898.53;;;10.51;34.03
76260;BME280;65076;52.362;6.588;2023-03-01T11:05:58;102889.81;;;10.29;34.72
76260;BME280;65076;52.362;6.588;2023-03-01T11:08:37;102892.34;;;10.98;34.08
76260;BME280;65076;52.362;6.588;2023-03-01T11:11:31;102889.31;;;11.16;34.11
76260;BME280;65076;52.362;6.588;2023-03-01T11:14:06;102888.28;;;11.25;34.52
76260;BME280;65076;52.362;6.588;2023-03-01T11:16:59;102881.28;;;11.58;32.04
76260;BME280;65076;52.362;6.588;2023-03-01T11:19:29;102887.72;;;10.49;34.09
76260;BME280;65076;52.362;6.588;2023-03-01T11:22:01;102876.84;;;11.08;33.60
76260;BME280;65076;52.362;6.588;2023-03-01T11:24:36;102876.91;;;11.97;31.76
76260;BME280;65076;52.362;6.588;2023-03-01T11:27:16;102872.72;;;11.82;32.30
76260;BME280;65076;52.362;6.588;2023-03-01T11:29:52;102862.25;;;12.05;32.14
76260;BME280;65076;52.362;6.588;2023-03-01T11:32:26;102863.69;;;11.35;32.71
76260;BME280;65076;52.362;6.588;2023-03-01T11:35:02;102875.63;;;11.24;32.69
76260;BME280;65076;52.362;6.588;2023-03-01T11:37:46;102868.16;;;10.87;33.17
76260;BME280;65076;52.362;6.588;2023-03-01T11:40:31;102867.25;;;10.87;35.01
76260;BME280;65076;52.362;6.588;2023-03-01T11:43:09;102874.50;;;10.28;35.10
76260;BME280;65076;52.362;6.588;2023-03-01T11:45:51;102867.19;;;10.36;35.50
76260;BME280;65076;52.362;6.588;2023-03-01T11:48:41;102858.00;;;11.47;34.05
76260;BME280;65076;52.362;6.588;2023-03-01T11:51:21;102875.84;;;11.13;34.15
76260;BME280;65076;52.362;6.588;2023-03-01T11:54:06;102860.13;;;11.78;33.49
76260;BME280;65076;52.362;6.588;2023-03-01T11:56:50;102852.97;;;12.15;33.12
76260;BME280;65076;52.362;6.588;2023-03-01T11:59:29;102848.97;;;12.33;30.93
76260;BME280;65076;52.362;6.588;2023-03-01T12:02:39;102844.44;;;12.70;30.51
76260;BME280;65076;52.362;6.588;2023-03-01T12:08:35;102842.31;;;12.08;31.51
76260;BME280;65076;52.362;6.588;2023-03-01T12:11:21;102840.94;;;11.42;32.37
76260;BME280;65076;52.362;6.588;2023-03-01T12:14:17;102843.16;;;11.67;31.72
76260;BME280;65076;52.362;6.588;2023-03-01T12:17:18;102848.44;;;12.54;30.35
76260;BME280;65076;52.362;6.588;2023-03-01T12:20:05;102837.50;;;12.57;30.17
76260;BME280;65076;52.362;6.588;2023-03-01T12:22:52;102839.09;;;11.89;31.45
76260;BME280;65076;52.362;6.588;2023-03-01T12:25:47;102826.59;;;11.82;30.28
76260;BME280;65076;52.362;6.588;2023-03-01T12:28:48;102814.59;;;12.32;29.70
76260;BME280;65076;52.362;6.588;2023-03-01T12:34:45;102812.75;;;12.34;29.62
76260;BME280;65076;52.362;6.588;2023-03-01T12:37:54;102813.00;;;11.83;31.34
76260;BME280;65076;52.362;6.588;2023-03-01T12:40:52;102811.69;;;11.60;30.59
76260;BME280;65076;52.362;6.588;2023-03-01T12:43:43;102803.50;;;12.41;30.53
76260;BME280;65076;52.362;6.588;2023-03-01T12:46:35;102809.09;;;13.04;29.81
76260;BME280;65076;52.362;6.588;2023-03-01T12:49:17;102799.50;;;13.56;29.78
76260;BME280;65076;52.362;6.588;2023-03-01T12:51:53;102796.16;;;12.82;31.13
76260;BME280;65076;52.362;6.588;2023-03-01T12:54:27;102793.34;;;12.85;30.39
76260;BME280;65076;52.362;6.588;2023-03-01T12:56:59;102794.53;;;12.01;31.87
76260;BME280;65076;52.362;6.588;2023-03-01T12:59:39;102779.91;;;12.79;31.06
76260;BME280;65076;52.362;6.588;2023-03-01T13:02:22;102770.19;;;12.70;31.28
76260;BME280;65076;52.362;6.588;2023-03-01T13:05:02;102780.03;;;12.40;31.88
76260;BME280;65076;52.362;6.588;2023-03-01T13:07:53;102773.94;;;12.98;30.80
76260;BME280;65076;52.362;6.588;2023-03-01T13:10:33;102771.59;;;12.51;31.37
76260;BME280;65076;52.362;6.588;2023-03-01T13:13:19;102768.66;;;12.60;31.44
76260;BME280;65076;52.362;6.588;2023-03-01T13:15:51;102751.72;;;13.17;30.97
76260;BME280;65076;52.362;6.588;2023-03-01T13:18:32;102740.16;;;12.41;31.57
76260;BME280;65076;52.362;6.588;2023-03-01T13:21:04;102738.13;;;12.50;31.83
76260;BME280;65076;52.362;6.588;2023-03-01T13:23:34;102738.19;;;12.47;31.91
76260;BME280;65076;52.362;6.588;2023-03-01T13:26:12;102742.03;;;12.03;32.25
76260;BME280;65076;52.362;6.588;2023-03-01T13:28:59;102727.09;;;13.23;30.85
76260;BME280;65076;52.362;6.588;2023-03-01T13:32:00;102732.94;;;12.75;31.90
76260;BME280;65076;52.362;6.588;2023-03-01T13:34:44;102729.78;;;12.90;31.56